Huvudsida
METAR-TAF:

METAR-TAF

Flygplatser :

Abha, Saudiarabien

latitud: 18-14N, longitud: 042-39E, höjd: 2090 m

Aktuellt väderrapport

Denna rapport gjordes för 25 minuter sedan, klockan 14:00 UTC
Vind 15 kt från syd
Temperatur 21°C
Fuktighet 35%
Tryck 1025 hPa
Sikt 10 km eller mer
Inga moln under 1 500 m eller inga cumulonimbus

METAR: OEAB 221400Z 18015KT CAVOK 21/05 Q1025 NOSIG

Tid: 17:25 (14:25 UTC)

Väderprognos

Denna rapport gjordes för 3 timmar och 25 minuter sedan, klockan 11:00 UTC
Prognos gäller från 22 kl. 12 UTC till 23 kl. 18 UTC
Vind 12 kt från syd/sydväst
Sikt 10 km eller mer
Få moln på en höjd av 2000 ft
Blir
från 22 kl. 18 UTC till 22 kl. 20 UTC
Vind 3 kt varierande vindriktning

TAF: OEAB 221100Z 2212/2318 21012KT 9999 FEW020 BECMG 2218/2220 VRB03KT

Aktuella väderrapporter och prognoser från 4000 flygplatser (METAR- och TAF-rapporter).

De tillgängliga stationerna syns som gula och röda prickar på kartan.

För musen över prickarna för att se namnen på stationerna.

Klicka sedan för att få väderrapporter och prognoser.

För att ändra kartan: Klicka på de gröna knapparna med ett svart kors på för att zooma in; den gröna knappen med ett streck på för att zooma ut; eller på de gröna pilarna för angränsande kartor.


METAR-TAF: